sensor_id;sensor_type;location;lat;lon;timestamp;temperature;humidity
33803;DHT22;20110;53.120;5.786;2023-08-20T00:01:15;14.30;99.90
33803;DHT22;20110;53.120;5.786;2023-08-20T00:03:49;14.30;99.90
33803;DHT22;20110;53.120;5.786;2023-08-20T00:06:16;14.40;99.90
33803;DHT22;20110;53.120;5.786;2023-08-20T00:08:42;14.30;99.90
33803;DHT22;20110;53.120;5.786;2023-08-20T00:11:11;14.40;99.90
33803;DHT22;20110;53.120;5.786;2023-08-20T00:13:37;14.40;99.90
33803;DHT22;20110;53.120;5.786;2023-08-20T00:16:03;14.40;99.90
33803;DHT22;20110;53.120;5.786;2023-08-20T00:18:30;14.20;99.90
33803;DHT22;20110;53.120;5.786;2023-08-20T00:20:56;14.20;99.90
33803;DHT22;20110;53.120;5.786;2023-08-20T00:23:22;14.10;99.90
33803;DHT22;20110;53.120;5.786;2023-08-20T00:25:49;14.00;99.90
33803;DHT22;20110;53.120;5.786;2023-08-20T00:28:15;13.80;99.90
33803;DHT22;20110;53.120;5.786;2023-08-20T00:30:40;13.70;99.90
33803;DHT22;20110;53.120;5.786;2023-08-20T00:33:07;13.70;99.90
33803;DHT22;20110;53.120;5.786;2023-08-20T00:35:33;13.70;99.90
33803;DHT22;20110;53.120;5.786;2023-08-20T00:37:59;13.80;99.90
33803;DHT22;20110;53.120;5.786;2023-08-20T00:40:25;13.80;99.90
33803;DHT22;20110;53.120;5.786;2023-08-20T00:42:51;13.90;99.90
33803;DHT22;20110;53.120;5.786;2023-08-20T00:45:16;13.90;99.90
33803;DHT22;20110;53.120;5.786;2023-08-20T00:47:43;13.90;99.90
33803;DHT22;20110;53.120;5.786;2023-08-20T00:50:09;14.00;99.90
33803;DHT22;20110;53.120;5.786;2023-08-20T00:52:37;14.10;99.90
33803;DHT22;20110;53.120;5.786;2023-08-20T00:55:11;14.20;99.90
33803;DHT22;20110;53.120;5.786;2023-08-20T00:57:40;14.30;99.90
33803;DHT22;20110;53.120;5.786;2023-08-20T01:00:10;14.30;99.90
33803;DHT22;20110;53.120;5.786;2023-08-20T01:02:37;14.30;99.90
33803;DHT22;20110;53.120;5.786;2023-08-20T01:05:06;14.40;99.90
33803;DHT22;20110;53.120;5.786;2023-08-20T01:08:01;14.40;99.90
33803;DHT22;20110;53.120;5.786;2023-08-20T01:13:27;14.40;99.90
33803;DHT22;20110;53.120;5.786;2023-08-20T01:15:53;14.40;99.90
33803;DHT22;20110;53.120;5.786;2023-08-20T01:18:19;14.40;99.90
33803;DHT22;20110;53.120;5.786;2023-08-20T01:20:52;14.30;99.90
33803;DHT22;20110;53.120;5.786;2023-08-20T01:23:40;14.20;99.90
33803;DHT22;20110;53.120;5.786;2023-08-20T01:26:25;14.20;99.90
33803;DHT22;20110;53.120;5.786;2023-08-20T01:29:12;14.10;99.90
33803;DHT22;20110;53.120;5.786;2023-08-20T01:31:39;14.00;99.90
33803;DHT22;20110;53.120;5.786;2023-08-20T01:34:06;14.00;99.90
33803;DHT22;20110;53.120;5.786;2023-08-20T01:36:32;14.00;99.90
33803;DHT22;20110;53.120;5.786;2023-08-20T01:38:57;14.00;99.90
33803;DHT22;20110;53.120;5.786;2023-08-20T01:41:23;14.00;99.90
33803;DHT22;20110;53.120;5.786;2023-08-20T01:43:49;14.00;99.90
33803;DHT22;20110;53.120;5.786;2023-08-20T01:46:15;13.90;99.90
33803;DHT22;20110;53.120;5.786;2023-08-20T01:48:40;14.00;99.90
33803;DHT22;20110;53.120;5.786;2023-08-20T01:51:06;13.90;99.90
33803;DHT22;20110;53.120;5.786;2023-08-20T01:53:32;13.90;99.90
33803;DHT22;20110;53.120;5.786;2023-08-20T01:55:58;13.90;99.90
33803;DHT22;20110;53.120;5.786;2023-08-20T01:58:24;13.80;99.90
33803;DHT22;20110;53.120;5.786;2023-08-20T02:00:51;13.80;99.90
33803;DHT22;20110;53.120;5.786;2023-08-20T02:03:17;13.80;99.90
33803;DHT22;20110;53.120;5.786;2023-08-20T02:05:43;13.80;99.90
33803;DHT22;20110;53.120;5.786;2023-08-20T02:08:09;13.80;99.90
33803;DHT22;20110;53.120;5.786;2023-08-20T02:10:35;13.80;99.90
33803;DHT22;20110;53.120;5.786;2023-08-20T02:13:01;13.80;99.90
33803;DHT22;20110;53.120;5.786;2023-08-20T02:15:27;13.80;99.90
33803;DHT22;20110;53.120;5.786;2023-08-20T02:17:53;13.80;99.90
33803;DHT22;20110;53.120;5.786;2023-08-20T02:20:19;13.70;99.90
33803;DHT22;20110;53.120;5.786;2023-08-20T02:22:44;13.70;99.90
33803;DHT22;20110;53.120;5.786;2023-08-20T02:25:10;13.70;99.90
33803;DHT22;20110;53.120;5.786;2023-08-20T02:27:36;13.80;99.90
33803;DHT22;20110;53.120;5.786;2023-08-20T02:30:02;13.90;99.90
33803;DHT22;20110;53.120;5.786;2023-08-20T02:32:28;14.00;99.90
33803;DHT22;20110;53.120;5.786;2023-08-20T02:34:55;14.00;99.90
33803;DHT22;20110;53.120;5.786;2023-08-20T02:37:21;14.00;99.90
33803;DHT22;20110;53.120;5.786;2023-08-20T02:39:47;14.00;99.90
33803;DHT22;20110;53.120;5.786;2023-08-20T02:42:12;14.00;99.90
33803;DHT22;20110;53.120;5.786;2023-08-20T02:44:38;14.00;99.90
33803;DHT22;20110;53.120;5.786;2023-08-20T02:47:04;14.00;99.90
33803;DHT22;20110;53.120;5.786;2023-08-20T02:49:30;14.00;99.90
33803;DHT22;20110;53.120;5.786;2023-08-20T02:51:56;13.90;99.90
33803;DHT22;20110;53.120;5.786;2023-08-20T02:54:22;13.80;99.90
33803;DHT22;20110;53.120;5.786;2023-08-20T02:56:48;13.70;99.90
33803;DHT22;20110;53.120;5.786;2023-08-20T02:59:14;13.50;99.90
33803;DHT22;20110;53.120;5.786;2023-08-20T03:01:40;13.40;99.90
33803;DHT22;20110;53.120;5.786;2023-08-20T03:04:07;13.40;99.90
33803;DHT22;20110;53.120;5.786;2023-08-20T03:06:33;13.30;99.90
33803;DHT22;20110;53.120;5.786;2023-08-20T03:08:59;13.30;99.90
33803;DHT22;20110;53.120;5.786;2023-08-20T03:11:25;13.30;99.90
33803;DHT22;20110;53.120;5.786;2023-08-20T03:13:51;13.20;99.90
33803;DHT22;20110;53.120;5.786;2023-08-20T03:16:16;13.20;99.90
33803;DHT22;20110;53.120;5.786;2023-08-20T03:18:42;13.20;99.90
33803;DHT22;20110;53.120;5.786;2023-08-20T03:21:08;13.10;99.90
33803;DHT22;20110;53.120;5.786;2023-08-20T03:23:34;13.10;99.90
33803;DHT22;20110;53.120;5.786;2023-08-20T03:25:59;13.10;99.90
33803;DHT22;20110;53.120;5.786;2023-08-20T03:28:25;13.00;99.90
33803;DHT22;20110;53.120;5.786;2023-08-20T03:30:51;13.00;99.90
33803;DHT22;20110;53.120;5.786;2023-08-20T03:33:17;13.10;99.90
33803;DHT22;20110;53.120;5.786;2023-08-20T03:35:43;13.20;99.90
33803;DHT22;20110;53.120;5.786;2023-08-20T03:38:09;13.20;99.90
33803;DHT22;20110;53.120;5.786;2023-08-20T03:40:34;13.40;99.90
33803;DHT22;20110;53.120;5.786;2023-08-20T03:43:00;13.50;99.90
33803;DHT22;20110;53.120;5.786;2023-08-20T03:45:27;13.50;99.90
33803;DHT22;20110;53.120;5.786;2023-08-20T03:47:55;13.50;99.90
33803;DHT22;20110;53.120;5.786;2023-08-20T03:50:21;13.40;99.90
33803;DHT22;20110;53.120;5.786;2023-08-20T03:52:46;13.30;99.90
33803;DHT22;20110;53.120;5.786;2023-08-20T03:55:12;13.40;99.90
33803;DHT22;20110;53.120;5.786;2023-08-20T03:57:38;13.50;99.90
33803;DHT22;20110;53.120;5.786;2023-08-20T04:00:04;13.60;99.90
33803;DHT22;20110;53.120;5.786;2023-08-20T04:02:34;13.70;99.90
33803;DHT22;20110;53.120;5.786;2023-08-20T04:05:00;13.70;99.90
33803;DHT22;20110;53.120;5.786;2023-08-20T04:07:26;13.80;99.90
33803;DHT22;20110;53.120;5.786;2023-08-20T04:09:52;13.80;99.90
33803;DHT22;20110;53.120;5.786;2023-08-20T04:12:18;13.90;99.90
33803;DHT22;20110;53.120;5.786;2023-08-20T04:14:44;13.90;99.90
33803;DHT22;20110;53.120;5.786;2023-08-20T04:17:10;14.00;99.90
33803;DHT22;20110;53.120;5.786;2023-08-20T04:19:36;14.00;99.90
33803;DHT22;20110;53.120;5.786;2023-08-20T04:22:01;14.10;99.90
33803;DHT22;20110;53.120;5.786;2023-08-20T04:24:27;14.10;99.90
33803;DHT22;20110;53.120;5.786;2023-08-20T04:26:53;14.10;99.90
33803;DHT22;20110;53.120;5.786;2023-08-20T04:29:19;14.10;99.90
33803;DHT22;20110;53.120;5.786;2023-08-20T04:31:45;14.10;99.90
33803;DHT22;20110;53.120;5.786;2023-08-20T04:34:10;14.20;99.90
33803;DHT22;20110;53.120;5.786;2023-08-20T04:36:36;14.10;99.90
33803;DHT22;20110;53.120;5.786;2023-08-20T04:39:02;14.10;99.90
33803;DHT22;20110;53.120;5.786;2023-08-20T04:41:29;14.10;99.90
33803;DHT22;20110;53.120;5.786;2023-08-20T04:43:55;14.10;99.90
33803;DHT22;20110;53.120;5.786;2023-08-20T04:46:21;14.10;99.90
33803;DHT22;20110;53.120;5.786;2023-08-20T04:48:47;14.10;99.90
33803;DHT22;20110;53.120;5.786;2023-08-20T04:51:13;14.10;99.90
33803;DHT22;20110;53.120;5.786;2023-08-20T04:53:38;14.00;99.90
33803;DHT22;20110;53.120;5.786;2023-08-20T04:56:04;14.00;99.90
33803;DHT22;20110;53.120;5.786;2023-08-20T04:58:30;14.00;99.90
33803;DHT22;20110;53.120;5.786;2023-08-20T05:00:56;14.00;99.90
33803;DHT22;20110;53.120;5.786;2023-08-20T05:03:22;14.00;99.90
33803;DHT22;20110;53.120;5.786;2023-08-20T05:05:50;14.10;99.90
33803;DHT22;20110;53.120;5.786;2023-08-20T05:08:16;14.10;99.90
33803;DHT22;20110;53.120;5.786;2023-08-20T05:10:42;14.20;99.90
33803;DHT22;20110;53.120;5.786;2023-08-20T05:13:08;14.20;99.90
33803;DHT22;20110;53.120;5.786;2023-08-20T05:15:35;14.30;99.90
33803;DHT22;20110;53.120;5.786;2023-08-20T05:18:00;14.30;99.90
33803;DHT22;20110;53.120;5.786;2023-08-20T05:20:26;14.40;99.90
33803;DHT22;20110;53.120;5.786;2023-08-20T05:22:52;14.40;99.90
33803;DHT22;20110;53.120;5.786;2023-08-20T05:25:18;14.40;99.90
33803;DHT22;20110;53.120;5.786;2023-08-20T05:27:44;14.50;99.90
33803;DHT22;20110;53.120;5.786;2023-08-20T05:30:10;14.50;99.90
33803;DHT22;20110;53.120;5.786;2023-08-20T05:32:36;14.60;99.90
33803;DHT22;20110;53.120;5.786;2023-08-20T05:35:02;14.70;99.90
33803;DHT22;20110;53.120;5.786;2023-08-20T05:37:29;14.60;99.90
33803;DHT22;20110;53.120;5.786;2023-08-20T05:39:55;14.70;99.90
33803;DHT22;20110;53.120;5.786;2023-08-20T05:47:32;14.90;99.90
33803;DHT22;20110;53.120;5.786;2023-08-20T05:49:59;14.90;99.90
33803;DHT22;20110;53.120;5.786;2023-08-20T05:52:25;15.00;99.90
33803;DHT22;20110;53.120;5.786;2023-08-20T05:54:51;15.00;99.90
33803;DHT22;20110;53.120;5.786;2023-08-20T05:57:18;15.10;99.90
33803;DHT22;20110;53.120;5.786;2023-08-20T05:59:44;15.10;99.90
33803;DHT22;20110;53.120;5.786;2023-08-20T06:02:09;15.20;99.90
33803;DHT22;20110;53.120;5.786;2023-08-20T06:04:35;15.30;99.90
33803;DHT22;20110;53.120;5.786;2023-08-20T06:07:01;15.30;99.90
33803;DHT22;20110;53.120;5.786;2023-08-20T06:09:27;15.40;99.90
33803;DHT22;20110;53.120;5.786;2023-08-20T06:11:54;15.50;99.90
33803;DHT22;20110;53.120;5.786;2023-08-20T06:14:19;15.50;99.90
33803;DHT22;20110;53.120;5.786;2023-08-20T06:16:45;15.60;99.90
33803;DHT22;20110;53.120;5.786;2023-08-20T06:19:11;15.70;99.90
33803;DHT22;20110;53.120;5.786;2023-08-20T06:21:37;15.80;99.90
33803;DHT22;20110;53.120;5.786;2023-08-20T06:24:03;15.90;99.90
33803;DHT22;20110;53.120;5.786;2023-08-20T06:26:29;16.00;99.90
33803;DHT22;20110;53.120;5.786;2023-08-20T06:28:55;16.00;99.90
33803;DHT22;20110;53.120;5.786;2023-08-20T06:31:20;16.10;99.90
33803;DHT22;20110;53.120;5.786;2023-08-20T06:33:47;16.20;99.90
33803;DHT22;20110;53.120;5.786;2023-08-20T06:36:13;16.30;99.90
33803;DHT22;20110;53.120;5.786;2023-08-20T06:38:39;16.40;99.90
33803;DHT22;20110;53.120;5.786;2023-08-20T06:41:04;16.50;99.90
33803;DHT22;20110;53.120;5.786;2023-08-20T06:43:30;16.60;99.90
33803;DHT22;20110;53.120;5.786;2023-08-20T06:45:56;16.70;99.90
33803;DHT22;20110;53.120;5.786;2023-08-20T06:48:22;16.80;99.90
33803;DHT22;20110;53.120;5.786;2023-08-20T06:50:50;16.80;99.90
33803;DHT22;20110;53.120;5.786;2023-08-20T06:53:16;16.90;99.90
33803;DHT22;20110;53.120;5.786;2023-08-20T06:55:42;17.00;99.90
33803;DHT22;20110;53.120;5.786;2023-08-20T06:58:08;17.10;99.90
33803;DHT22;20110;53.120;5.786;2023-08-20T07:00:33;17.10;99.90
33803;DHT22;20110;53.120;5.786;2023-08-20T07:02:59;17.30;99.90
33803;DHT22;20110;53.120;5.786;2023-08-20T07:05:25;17.20;99.90
33803;DHT22;20110;53.120;5.786;2023-08-20T07:07:51;17.30;99.90
33803;DHT22;20110;53.120;5.786;2023-08-20T07:10:17;17.50;99.90
33803;DHT22;20110;53.120;5.786;2023-08-20T07:12:42;17.60;99.90
33803;DHT22;20110;53.120;5.786;2023-08-20T07:15:08;17.60;99.90
33803;DHT22;20110;53.120;5.786;2023-08-20T07:17:34;17.60;99.90
33803;DHT22;20110;53.120;5.786;2023-08-20T07:20:00;17.60;99.90
33803;DHT22;20110;53.120;5.786;2023-08-20T07:22:26;17.70;99.90
33803;DHT22;20110;53.120;5.786;2023-08-20T07:24:52;17.60;99.90
33803;DHT22;20110;53.120;5.786;2023-08-20T07:27:18;17.60;99.90
33803;DHT22;20110;53.120;5.786;2023-08-20T07:29:44;17.60;99.90
33803;DHT22;20110;53.120;5.786;2023-08-20T07:32:09;17.70;99.90
33803;DHT22;20110;53.120;5.786;2023-08-20T07:34:35;17.80;99.90
33803;DHT22;20110;53.120;5.786;2023-08-20T07:37:01;18.00;99.90
33803;DHT22;20110;53.120;5.786;2023-08-20T07:39:28;18.00;99.90
33803;DHT22;20110;53.120;5.786;2023-08-20T07:41:54;18.00;99.90
33803;DHT22;20110;53.120;5.786;2023-08-20T07:44:19;18.20;99.90
33803;DHT22;20110;53.120;5.786;2023-08-20T07:46:45;18.30;99.90
33803;DHT22;20110;53.120;5.786;2023-08-20T07:49:11;18.40;99.90
33803;DHT22;20110;53.120;5.786;2023-08-20T07:51:37;18.50;99.90
33803;DHT22;20110;53.120;5.786;2023-08-20T07:54:03;18.30;99.90
33803;DHT22;20110;53.120;5.786;2023-08-20T07:56:29;18.30;99.90
33803;DHT22;20110;53.120;5.786;2023-08-20T07:58:55;18.50;99.90
33803;DHT22;20110;53.120;5.786;2023-08-20T08:01:21;18.70;99.90
33803;DHT22;20110;53.120;5.786;2023-08-20T08:03:47;18.90;99.90
33803;DHT22;20110;53.120;5.786;2023-08-20T08:06:13;18.80;99.90
33803;DHT22;20110;53.120;5.786;2023-08-20T08:08:42;19.00;99.90
33803;DHT22;20110;53.120;5.786;2023-08-20T08:11:12;18.90;99.90
33803;DHT22;20110;53.120;5.786;2023-08-20T08:13:38;18.90;99.90
33803;DHT22;20110;53.120;5.786;2023-08-20T08:16:04;18.90;99.90
33803;DHT22;20110;53.120;5.786;2023-08-20T08:18:30;18.90;99.90
33803;DHT22;20110;53.120;5.786;2023-08-20T08:20:55;19.10;99.90
33803;DHT22;20110;53.120;5.786;2023-08-20T08:23:21;19.40;99.90
33803;DHT22;20110;53.120;5.786;2023-08-20T08:25:47;19.30;99.90
33803;DHT22;20110;53.120;5.786;2023-08-20T08:28:13;19.20;99.90
33803;DHT22;20110;53.120;5.786;2023-08-20T08:30:39;19.30;99.90
33803;DHT22;20110;53.120;5.786;2023-08-20T08:33:06;18.80;99.90
33803;DHT22;20110;53.120;5.786;2023-08-20T08:35:31;18.30;50.70
33803;DHT22;20110;53.120;5.786;2023-08-20T08:37:57;18.10;99.90
33803;DHT22;20110;53.120;5.786;2023-08-20T08:40:27;18.00;99.90
33803;DHT22;20110;53.120;5.786;2023-08-20T08:42:55;17.80;99.90
33803;DHT22;20110;53.120;5.786;2023-08-20T08:45:21;17.90;99.90
33803;DHT22;20110;53.120;5.786;2023-08-20T08:47:47;18.00;99.90
33803;DHT22;20110;53.120;5.786;2023-08-20T08:50:15;17.90;99.90
33803;DHT22;20110;53.120;5.786;2023-08-20T08:52:41;18.50;99.90
33803;DHT22;20110;53.120;5.786;2023-08-20T08:55:08;18.90;99.90
33803;DHT22;20110;53.120;5.786;2023-08-20T08:57:38;19.00;99.90
33803;DHT22;20110;53.120;5.786;2023-08-20T09:00:05;19.20;99.90
33803;DHT22;20110;53.120;5.786;2023-08-20T09:02:31;19.40;99.90
33803;DHT22;20110;53.120;5.786;2023-08-20T09:04:57;19.60;99.90
33803;DHT22;20110;53.120;5.786;2023-08-20T09:07:23;19.80;1.00
33803;DHT22;20110;53.120;5.786;2023-08-20T09:09:49;19.80;1.00
33803;DHT22;20110;53.120;5.786;2023-08-20T09:12:16;20.10;1.00
33803;DHT22;20110;53.120;5.786;2023-08-20T09:14:48;20.20;99.90
33803;DHT22;20110;53.120;5.786;2023-08-20T09:17:15;19.90;1.00
33803;DHT22;20110;53.120;5.786;2023-08-20T09:19:43;19.90;1.00
33803;DHT22;20110;53.120;5.786;2023-08-20T09:22:14;19.70;99.90
33803;DHT22;20110;53.120;5.786;2023-08-20T09:24:51;20.00;99.90
33803;DHT22;20110;53.120;5.786;2023-08-20T09:27:22;20.20;1.00
33803;DHT22;20110;53.120;5.786;2023-08-20T09:29:50;20.60;99.90
33803;DHT22;20110;53.120;5.786;2023-08-20T09:32:26;20.30;99.90
33803;DHT22;20110;53.120;5.786;2023-08-20T09:34:55;20.30;99.90
33803;DHT22;20110;53.120;5.786;2023-08-20T09:37:22;20.20;99.90
33803;DHT22;20110;53.120;5.786;2023-08-20T09:39:50;20.40;99.90
33803;DHT22;20110;53.120;5.786;2023-08-20T09:42:16;20.60;99.90
33803;DHT22;20110;53.120;5.786;2023-08-20T09:44:44;20.60;99.90
33803;DHT22;20110;53.120;5.786;2023-08-20T09:47:15;20.80;1.00
33803;DHT22;20110;53.120;5.786;2023-08-20T09:49:43;20.80;99.90
33803;DHT22;20110;53.120;5.786;2023-08-20T09:52:12;20.50;99.90
33803;DHT22;20110;53.120;5.786;2023-08-20T09:55:08;20.60;99.90
33803;DHT22;20110;53.120;5.786;2023-08-20T09:57:40;21.30;99.90
33803;DHT22;20110;53.120;5.786;2023-08-20T10:00:08;21.40;1.00
33803;DHT22;20110;53.120;5.786;2023-08-20T10:02:36;21.50;1.00
33803;DHT22;20110;53.120;5.786;2023-08-20T10:05:08;21.70;99.90
33803;DHT22;20110;53.120;5.786;2023-08-20T10:07:35;22.00;99.90
33803;DHT22;20110;53.120;5.786;2023-08-20T10:10:04;21.90;99.90
33803;DHT22;20110;53.120;5.786;2023-08-20T10:12:32;21.80;99.90
33803;DHT22;20110;53.120;5.786;2023-08-20T10:15:00;22.00;99.90
33803;DHT22;20110;53.120;5.786;2023-08-20T10:17:29;22.30;93.30
33803;DHT22;20110;53.120;5.786;2023-08-20T10:19:58;23.10;99.90
33803;DHT22;20110;53.120;5.786;2023-08-20T10:22:33;23.10;99.90
33803;DHT22;20110;53.120;5.786;2023-08-20T10:25:08;23.20;99.90
33803;DHT22;20110;53.120;5.786;2023-08-20T10:27:40;23.50;99.90
33803;DHT22;20110;53.120;5.786;2023-08-20T10:30:11;23.70;96.50
33803;DHT22;20110;53.120;5.786;2023-08-20T10:32:45;23.90;99.90
33803;DHT22;20110;53.120;5.786;2023-08-20T10:35:15;23.60;75.50
33803;DHT22;20110;53.120;5.786;2023-08-20T10:38:14;23.90;73.90
33803;DHT22;20110;53.120;5.786;2023-08-20T10:41:00;24.80;99.00
33803;DHT22;20110;53.120;5.786;2023-08-20T10:48:57;24.30;99.90
33803;DHT22;20110;53.120;5.786;2023-08-20T10:51:29;24.80;99.90
33803;DHT22;20110;53.120;5.786;2023-08-20T10:56:47;24.70;1.00
33803;DHT22;20110;53.120;5.786;2023-08-20T10:59:16;24.90;99.90
33803;DHT22;20110;53.120;5.786;2023-08-20T11:01:47;26.00;1.00
33803;DHT22;20110;53.120;5.786;2023-08-20T11:04:19;25.40;36.80
33803;DHT22;20110;53.120;5.786;2023-08-20T11:06:46;25.20;27.80
33803;DHT22;20110;53.120;5.786;2023-08-20T11:09:15;25.10;99.90
33803;DHT22;20110;53.120;5.786;2023-08-20T11:11:42;24.30;1.00
33803;DHT22;20110;53.120;5.786;2023-08-20T11:14:12;24.00;1.00
33803;DHT22;20110;53.120;5.786;2023-08-20T11:16:43;23.80;99.90
33803;DHT22;20110;53.120;5.786;2023-08-20T11:19:10;24.90;99.90
33803;DHT22;20110;53.120;5.786;2023-08-20T11:21:39;25.00;99.90
33803;DHT22;20110;53.120;5.786;2023-08-20T11:24:09;24.70;99.90
33803;DHT22;20110;53.120;5.786;2023-08-20T11:26:37;24.70;99.90
33803;DHT22;20110;53.120;5.786;2023-08-20T11:29:15;25.60;1.00
33803;DHT22;20110;53.120;5.786;2023-08-20T11:31:48;25.70;1.00
33803;DHT22;20110;53.120;5.786;2023-08-20T11:34:16;25.60;99.90
33803;DHT22;20110;53.120;5.786;2023-08-20T11:36:43;25.70;77.10
33803;DHT22;20110;53.120;5.786;2023-08-20T11:39:09;26.40;1.00
33803;DHT22;20110;53.120;5.786;2023-08-20T11:41:36;26.60;1.00
33803;DHT22;20110;53.120;5.786;2023-08-20T11:44:04;26.50;58.70
33803;DHT22;20110;53.120;5.786;2023-08-20T11:46:30;25.50;99.90
33803;DHT22;20110;53.120;5.786;2023-08-20T11:49:14;25.50;99.90
33803;DHT22;20110;53.120;5.786;2023-08-20T11:51:46;25.60;99.90
33803;DHT22;20110;53.120;5.786;2023-08-20T11:54:16;25.80;99.90
33803;DHT22;20110;53.120;5.786;2023-08-20T11:56:46;25.50;99.90
33803;DHT22;20110;53.120;5.786;2023-08-20T11:59:14;25.70;1.00
33803;DHT22;20110;53.120;5.786;2023-08-20T12:01:41;25.20;99.90
33803;DHT22;20110;53.120;5.786;2023-08-20T12:04:09;25.10;99.90
33803;DHT22;20110;53.120;5.786;2023-08-20T12:06:38;25.00;99.90
33803;DHT22;20110;53.120;5.786;2023-08-20T12:09:23;25.20;99.90
33803;DHT22;20110;53.120;5.786;2023-08-20T12:11:49;25.60;99.90
33803;DHT22;20110;53.120;5.786;2023-08-20T12:14:18;25.00;1.00
33803;DHT22;20110;53.120;5.786;2023-08-20T12:16:45;25.20;1.00
33803;DHT22;20110;53.120;5.786;2023-08-20T12:19:12;25.50;90.60
33803;DHT22;20110;53.120;5.786;2023-08-20T12:21:40;25.50;99.90
33803;DHT22;20110;53.120;5.786;2023-08-20T12:24:09;25.60;25.60
33803;DHT22;20110;53.120;5.786;2023-08-20T12:26:36;26.00;50.40
33803;DHT22;20110;53.120;5.786;2023-08-20T12:29:02;26.10;99.90
33803;DHT22;20110;53.120;5.786;2023-08-20T12:31:28;26.00;57.40
33803;DHT22;20110;53.120;5.786;2023-08-20T12:33:54;26.00;99.90
33803;DHT22;20110;53.120;5.786;2023-08-20T12:36:20;25.30;99.90
33803;DHT22;20110;53.120;5.786;2023-08-20T12:38:46;24.70;99.90
33803;DHT22;20110;53.120;5.786;2023-08-20T12:41:12;23.80;99.90
33803;DHT22;20110;53.120;5.786;2023-08-20T12:43:38;24.20;99.90
33803;DHT22;20110;53.120;5.786;2023-08-20T12:46:03;24.90;99.90
33803;DHT22;20110;53.120;5.786;2023-08-20T12:48:29;25.40;99.90
33803;DHT22;20110;53.120;5.786;2023-08-20T12:50:55;25.50;99.90
33803;DHT22;20110;53.120;5.786;2023-08-20T12:53:23;25.30;99.90
33803;DHT22;20110;53.120;5.786;2023-08-20T12:55:49;24.40;99.90
33803;DHT22;20110;53.120;5.786;2023-08-20T12:58:14;24.00;99.90
33803;DHT22;20110;53.120;5.786;2023-08-20T13:00:40;23.90;99.90
33803;DHT22;20110;53.120;5.786;2023-08-20T13:03:07;24.00;99.90
33803;DHT22;20110;53.120;5.786;2023-08-20T13:05:39;24.10;99.90
33803;DHT22;20110;53.120;5.786;2023-08-20T13:08:06;24.80;99.90
33803;DHT22;20110;53.120;5.786;2023-08-20T13:10:32;24.70;99.90
33803;DHT22;20110;53.120;5.786;2023-08-20T13:13:02;24.00;99.90
33803;DHT22;20110;53.120;5.786;2023-08-20T13:15:28;23.70;99.90
33803;DHT22;20110;53.120;5.786;2023-08-20T13:17:55;23.60;99.90
33803;DHT22;20110;53.120;5.786;2023-08-20T13:20:21;24.00;99.90
33803;DHT22;20110;53.120;5.786;2023-08-20T13:22:49;23.70;99.90
33803;DHT22;20110;53.120;5.786;2023-08-20T13:25:16;23.80;99.90
33803;DHT22;20110;53.120;5.786;2023-08-20T13:27:42;23.60;99.90
33803;DHT22;20110;53.120;5.786;2023-08-20T13:30:09;23.50;99.90
33803;DHT22;20110;53.120;5.786;2023-08-20T13:32:36;23.90;99.90
33803;DHT22;20110;53.120;5.786;2023-08-20T13:35:02;23.60;1.00
33803;DHT22;20110;53.120;5.786;2023-08-20T13:37:32;23.20;99.90
33803;DHT22;20110;53.120;5.786;2023-08-20T13:40:00;23.50;1.00
33803;DHT22;20110;53.120;5.786;2023-08-20T13:42:26;23.50;99.90
33803;DHT22;20110;53.120;5.786;2023-08-20T13:44:52;23.60;99.90
33803;DHT22;20110;53.120;5.786;2023-08-20T13:47:18;24.20;99.90
33803;DHT22;20110;53.120;5.786;2023-08-20T13:49:44;24.00;99.90
33803;DHT22;20110;53.120;5.786;2023-08-20T13:52:10;24.10;99.90
33803;DHT22;20110;53.120;5.786;2023-08-20T13:54:36;23.90;99.90
33803;DHT22;20110;53.120;5.786;2023-08-20T13:57:03;23.90;99.90
33803;DHT22;20110;53.120;5.786;2023-08-20T13:59:30;23.70;99.90
33803;DHT22;20110;53.120;5.786;2023-08-20T14:01:57;23.60;99.90
33803;DHT22;20110;53.120;5.786;2023-08-20T14:04:24;23.70;99.90
33803;DHT22;20110;53.120;5.786;2023-08-20T14:06:50;23.90;99.90
33803;DHT22;20110;53.120;5.786;2023-08-20T14:09:16;23.60;99.90
33803;DHT22;20110;53.120;5.786;2023-08-20T14:11:45;23.40;99.90
33803;DHT22;20110;53.120;5.786;2023-08-20T14:14:11;23.50;99.90
33803;DHT22;20110;53.120;5.786;2023-08-20T14:16:37;23.40;99.90
33803;DHT22;20110;53.120;5.786;2023-08-20T14:19:04;23.60;99.90
33803;DHT22;20110;53.120;5.786;2023-08-20T14:21:30;23.60;99.90
33803;DHT22;20110;53.120;5.786;2023-08-20T14:23:55;23.30;99.90
33803;DHT22;20110;53.120;5.786;2023-08-20T14:26:21;23.40;99.90
33803;DHT22;20110;53.120;5.786;2023-08-20T14:28:47;23.40;99.90
33803;DHT22;20110;53.120;5.786;2023-08-20T14:31:13;23.20;99.90
33803;DHT22;20110;53.120;5.786;2023-08-20T14:33:39;23.20;99.90
33803;DHT22;20110;53.120;5.786;2023-08-20T14:36:05;23.10;99.90
33803;DHT22;20110;53.120;5.786;2023-08-20T14:38:31;23.20;99.90
33803;DHT22;20110;53.120;5.786;2023-08-20T14:41:01;23.30;99.90
33803;DHT22;20110;53.120;5.786;2023-08-20T14:43:28;23.30;99.90
33803;DHT22;20110;53.120;5.786;2023-08-20T14:45:55;23.40;99.90
33803;DHT22;20110;53.120;5.786;2023-08-20T14:48:24;23.40;99.90
33803;DHT22;20110;53.120;5.786;2023-08-20T14:50:51;23.10;7.60
33803;DHT22;20110;53.120;5.786;2023-08-20T14:53:17;22.80;47.10
33803;DHT22;20110;53.120;5.786;2023-08-20T14:55:44;22.60;99.90
33803;DHT22;20110;53.120;5.786;2023-08-20T14:58:10;22.80;94.10
33803;DHT22;20110;53.120;5.786;2023-08-20T15:00:36;22.70;99.90
33803;DHT22;20110;53.120;5.786;2023-08-20T15:03:03;22.90;75.50
33803;DHT22;20110;53.120;5.786;2023-08-20T15:05:30;22.60;99.90
33803;DHT22;20110;53.120;5.786;2023-08-20T15:07:56;22.60;99.90
33803;DHT22;20110;53.120;5.786;2023-08-20T15:10:22;22.50;99.90
33803;DHT22;20110;53.120;5.786;2023-08-20T15:12:48;22.50;99.90
33803;DHT22;20110;53.120;5.786;2023-08-20T15:15:14;22.60;99.90
33803;DHT22;20110;53.120;5.786;2023-08-20T15:17:40;22.50;99.90
33803;DHT22;20110;53.120;5.786;2023-08-20T15:20:06;22.50;99.90
33803;DHT22;20110;53.120;5.786;2023-08-20T15:22:36;22.50;99.90
33803;DHT22;20110;53.120;5.786;2023-08-20T15:25:03;22.20;99.90
33803;DHT22;20110;53.120;5.786;2023-08-20T15:27:30;22.40;99.90
33803;DHT22;20110;53.120;5.786;2023-08-20T15:29:56;22.10;99.90
33803;DHT22;20110;53.120;5.786;2023-08-20T15:32:22;22.20;99.90
33803;DHT22;20110;53.120;5.786;2023-08-20T15:34:49;22.30;99.90
33803;DHT22;20110;53.120;5.786;2023-08-20T15:37:15;22.50;92.00
33803;DHT22;20110;53.120;5.786;2023-08-20T15:39:42;22.50;99.90
33803;DHT22;20110;53.120;5.786;2023-08-20T15:42:07;22.50;99.90
33803;DHT22;20110;53.120;5.786;2023-08-20T15:44:33;22.40;99.90
33803;DHT22;20110;53.120;5.786;2023-08-20T15:46:59;22.40;99.90
33803;DHT22;20110;53.120;5.786;2023-08-20T15:49:25;22.30;99.90